Time;durP1;ratioP1;P1;durP2;ratioP2;P2;SDS_P1;SDS_P2;PMS_P1;PMS_P2;Temp;Humidity;BMP_temperature;BMP_pressure;BME280_temperature;BME280_humidity;BME280_pressure;Samples;Min_cycle;Max_cycle;Signal;HPM_P1;HPM_P2
2021/01/04 00:00:20;;;;;;;2.60;2.00;;;19.90;48.10;;;;;;5031926;28;21545;-70
2021/01/04 00:02:56;;;;;;;2.00;1.90;;;19.90;48.00;;;;;;5038313;28;20535;-69
2021/01/04 00:05:31;;;;;;;2.00;1.90;;;20.00;48.00;;;;;;5046133;28;20562;-69
2021/01/04 00:08:24;;;;;;;3.50;2.20;;;20.00;47.90;;;;;;5025054;28;20576;-69
2021/01/04 00:11:23;;;;;;;2.10;1.90;;;20.00;47.80;;;;;;5053367;28;20518;-69
2021/01/04 00:13:56;;;;;;;2.57;2.47;;;20.00;47.90;;;;;;5026899;28;20488;-69
2021/01/04 00:16:27;;;;;;;1.73;1.63;;;19.90;47.70;;;;;;5036495;28;20492;-69
2021/01/04 00:18:57;;;;;;;1.70;1.60;;;19.90;47.80;;;;;;5034699;28;20482;-69
2021/01/04 00:21:25;;;;;;;2.67;2.57;;;19.90;47.80;;;;;;5028637;28;20998;-69
2021/01/04 00:24:01;;;;;;;1.70;1.60;;;19.90;47.80;;;;;;5022161;28;20496;-69
2021/01/04 00:26:29;;;;;;;4.80;2.20;;;19.90;47.90;;;;;;5039966;28;20482;-69
2021/01/04 00:28:56;;;;;;;1.83;1.73;;;19.90;47.90;;;;;;5040675;28;20590;-69
2021/01/04 00:31:25;;;;;;;2.80;1.90;;;19.90;47.90;;;;;;5022286;28;20496;-70
2021/01/04 00:33:52;;;;;;;2.27;1.90;;;19.90;48.00;;;;;;5032415;28;20499;-70
2021/01/04 00:36:20;;;;;;;3.10;2.13;;;19.90;47.80;;;;;;5026222;28;20509;-69
2021/01/04 00:39:13;;;;;;;1.93;1.83;;;19.90;47.80;;;;;;5033260;28;20491;-69
2021/01/04 00:41:46;;;;;;;2.40;2.00;;;20.00;47.80;;;;;;5001646;28;20484;-70
2021/01/04 00:44:16;;;;;;;2.20;2.10;;;20.00;47.70;;;;;;5022624;28;20489;-69
2021/01/04 00:46:45;;;;;;;2.57;2.37;;;20.00;47.60;;;;;;5021650;28;21009;-69
2021/01/04 00:49:14;;;;;;;2.30;2.20;;;20.00;47.60;;;;;;5034092;28;20621;-69
2021/01/04 00:51:44;;;;;;;2.27;2.17;;;20.00;47.50;;;;;;5032232;28;20490;-69
2021/01/04 00:54:22;;;;;;;1.97;1.80;;;20.00;47.60;;;;;;5026710;28;20490;-68
2021/01/04 00:56:53;;;;;;;1.60;1.50;;;20.00;47.60;;;;;;5045462;28;20482;-69
2021/01/04 00:59:33;;;;;;;2.50;1.63;;;19.90;47.60;;;;;;4992164;28;20510;-70
2021/01/04 01:02:25;;;;;;;3.27;2.20;;;19.90;47.50;;;;;;5039772;28;20536;-68
2021/01/04 01:04:58;;;;;;;2.17;1.60;;;19.90;47.40;;;;;;5042486;28;20597;-69
2021/01/04 01:07:46;;;;;;;2.10;1.90;;;20.00;47.50;;;;;;5036645;28;20485;-69
2021/01/04 01:10:13;;;;;;;2.80;2.00;;;20.00;47.50;;;;;;5052419;28;20493;-69
2021/01/04 01:12:44;;;;;;;2.70;2.10;;;20.00;47.40;;;;;;5023875;28;20527;-68
2021/01/04 01:15:21;;;;;;;2.47;2.00;;;20.00;47.40;;;;;;5039173;28;20481;-69
2021/01/04 01:18:06;;;;;;;2.47;2.23;;;20.00;47.20;;;;;;5050827;28;20485;-68
2021/01/04 01:20:33;;;;;;;1.83;1.73;;;20.10;47.30;;;;;;5058816;28;20552;-69
2021/01/04 01:22:59;;;;;;;2.27;2.00;;;20.10;47.30;;;;;;5056906;28;20520;-69
2021/01/04 01:25:28;;;;;;;2.17;1.97;;;20.00;47.30;;;;;;5059955;28;20554;-68
2021/01/04 01:28:35;;;;;;;1.47;1.37;;;20.00;47.20;;;;;;5059326;28;20490;-68
2021/01/04 01:31:28;;;;;;;1.40;1.30;;;20.00;47.20;;;;;;5054089;28;20478;-70
2021/01/04 01:34:19;;;;;;;1.57;1.47;;;20.00;47.30;;;;;;5056925;28;20505;-69
2021/01/04 01:37:15;;;;;;;2.10;2.00;;;20.00;47.40;;;;;;5058521;28;20581;-69
2021/01/04 01:39:57;;;;;;;2.23;2.03;;;19.90;47.50;;;;;;5048948;28;20478;-69
2021/01/04 01:42:53;;;;;;;3.53;1.77;;;19.90;47.40;;;;;;5057940;28;21042;-69
2021/01/04 01:45:20;;;;;;;2.50;1.27;;;19.90;47.20;;;;;;5054738;28;20486;-69
2021/01/04 01:47:53;;;;;;;1.83;1.60;;;20.00;47.50;;;;;;5057474;28;21023;-69
2021/01/04 01:50:26;;;;;;;2.63;1.40;;;20.00;47.40;;;;;;5055589;28;20508;-69
2021/01/04 01:52:56;;;;;;;1.60;1.50;;;20.00;47.30;;;;;;5057928;28;20501;-67
2021/01/04 01:55:39;;;;;;;3.03;1.53;;;20.00;47.20;;;;;;5054897;28;20478;-69
2021/01/04 01:58:26;;;;;;;1.43;1.33;;;20.00;47.10;;;;;;5033130;28;20508;-69
2021/01/04 02:00:56;;;;;;;1.90;1.53;;;20.00;47.10;;;;;;5038203;28;20466;-69
2021/01/04 02:03:26;;;;;;;1.60;1.50;;;20.00;47.20;;;;;;5056672;28;20473;-69
2021/01/04 02:06:19;;;;;;;2.33;2.07;;;20.00;47.20;;;;;;5056739;28;20535;-69
2021/01/04 02:08:47;;;;;;;2.27;2.07;;;20.00;47.20;;;;;;5057294;28;20478;-69
2021/01/04 02:11:16;;;;;;;1.97;1.70;;;19.90;47.40;;;;;;5059962;28;20482;-69
2021/01/04 02:13:52;;;;;;;2.47;1.67;;;19.90;48.20;;;;;;5059811;28;20529;-69
2021/01/04 02:16:20;;;;;;;2.80;1.67;;;19.90;47.20;;;;;;5059648;28;20473;-69
2021/01/04 02:18:50;;;;;;;2.30;2.20;;;19.90;47.40;;;;;;5056663;28;20481;-69
2021/01/04 02:21:50;;;;;;;1.57;1.30;;;19.90;47.60;;;;;;5051711;28;20519;-69
2021/01/04 02:24:20;;;;;;;1.10;1.00;;;19.90;47.50;;;;;;5056864;28;20485;-68
2021/01/04 02:26:50;;;;;;;1.70;1.50;;;19.90;47.40;;;;;;5058877;28;20494;-68
2021/01/04 02:29:18;;;;;;;1.80;1.47;;;19.90;47.40;;;;;;5057289;28;20552;-68
2021/01/04 02:31:45;;;;;;;1.57;1.50;;;19.90;47.30;;;;;;5055959;28;20474;-68
2021/01/04 02:34:13;;;;;;;1.90;1.60;;;19.80;47.30;;;;;;5057693;28;20474;-69
2021/01/04 02:36:41;;;;;;;1.53;1.30;;;19.90;47.30;;;;;;5047339;28;20477;-68
2021/01/04 02:39:08;;;;;;;1.57;1.47;;;19.90;47.20;;;;;;5058877;28;20474;-70
2021/01/04 02:41:43;;;;;;;1.37;1.27;;;19.90;47.10;;;;;;5058482;28;20478;-69
2021/01/04 02:44:09;;;;;;;1.60;1.50;;;20.00;47.10;;;;;;5048958;28;20485;-69
2021/01/04 02:46:37;;;;;;;1.20;1.10;;;20.00;46.90;;;;;;5056418;28;20489;-70
2021/01/04 02:49:07;;;;;;;1.10;1.10;;;20.00;47.10;;;;;;5056136;28;20552;-69
2021/01/04 02:51:35;;;;;;;2.80;1.30;;;20.00;47.10;;;;;;5057009;28;20494;-69
2021/01/04 02:54:08;;;;;;;1.40;1.30;;;20.00;47.10;;;;;;5053904;28;20485;-69
2021/01/04 02:56:39;;;;;;;6.00;1.47;;;19.90;47.10;;;;;;5057933;28;20485;-69
2021/01/04 02:59:12;;;;;;;2.03;1.27;;;19.90;47.20;;;;;;5054800;28;21217;-69
2021/01/04 03:01:40;;;;;;;3.43;1.03;;;19.90;47.20;;;;;;5055113;28;20497;-68
2021/01/04 03:04:09;;;;;;;1.63;1.33;;;19.90;47.10;;;;;;5057495;28;20474;-69
2021/01/04 03:06:39;;;;;;;1.50;1.40;;;19.90;47.10;;;;;;5057709;28;20569;-68
2021/01/04 03:09:07;;;;;;;1.17;1.17;;;19.90;47.30;;;;;;5057467;28;20531;-69
2021/01/04 03:11:33;;;;;;;1.30;1.30;;;19.90;47.30;;;;;;5058580;28;20485;-69
2021/01/04 03:14:01;;;;;;;1.87;1.50;;;19.90;47.20;;;;;;5061869;28;20565;-69
2021/01/04 03:16:31;;;;;;;1.30;1.13;;;19.90;46.90;;;;;;5051282;28;20486;-69
2021/01/04 03:19:00;;;;;;;1.07;0.97;;;19.90;47.00;;;;;;5071200;28;20863;-69
2021/01/04 03:21:26;;;;;;;1.40;1.30;;;19.90;47.10;;;;;;5056182;28;20477;-68
2021/01/04 03:23:53;;;;;;;1.03;1.00;;;19.90;47.10;;;;;;5056445;28;20992;-69
2021/01/04 03:26:20;;;;;;;1.27;1.17;;;19.90;47.10;;;;;;5054955;28;20591;-68
2021/01/04 03:28:46;;;;;;;1.13;1.03;;;19.90;47.10;;;;;;5055334;28;20969;-69
2021/01/04 03:31:12;;;;;;;2.30;1.03;;;19.90;47.20;;;;;;5055928;28;20492;-68
2021/01/04 03:33:39;;;;;;;1.07;1.07;;;19.80;47.10;;;;;;5055869;28;20476;-68
2021/01/04 03:36:06;;;;;;;1.50;1.40;;;19.80;47.10;;;;;;5050305;28;20494;-69
2021/01/04 03:38:34;;;;;;;1.30;1.20;;;19.80;47.30;;;;;;5059673;28;20489;-69
2021/01/04 03:41:01;;;;;;;1.33;1.23;;;19.80;47.20;;;;;;5050224;28;21656;-69
2021/01/04 03:43:27;;;;;;;1.07;0.97;;;19.80;47.20;;;;;;5065277;28;20482;-69
2021/01/04 03:45:53;;;;;;;0.83;0.83;;;19.80;47.30;;;;;;5057524;28;20492;-69
2021/01/04 03:48:19;;;;;;;1.10;1.00;;;19.80;47.40;;;;;;5060433;28;20481;-69
2021/01/04 03:50:46;;;;;;;0.80;0.80;;;19.80;47.40;;;;;;5055547;28;20497;-69
2021/01/04 03:53:12;;;;;;;0.80;0.73;;;19.80;47.40;;;;;;5054907;28;20477;-69
2021/01/04 03:55:39;;;;;;;0.97;0.97;;;19.70;47.40;;;;;;5056149;28;20990;-70
2021/01/04 03:58:05;;;;;;;1.43;1.33;;;19.70;47.40;;;;;;5055369;28;20938;-70
2021/01/04 04:00:31;;;;;;;0.70;0.70;;;19.80;47.50;;;;;;5055013;28;20488;-68
2021/01/04 04:02:57;;;;;;;0.60;0.60;;;19.70;47.40;;;;;;5056702;28;20486;-69
2021/01/04 04:05:23;;;;;;;2.03;1.30;;;19.70;47.50;;;;;;5059758;28;20512;-69
2021/01/04 04:07:51;;;;;;;1.40;1.30;;;19.70;47.40;;;;;;5048951;28;20488;-68
2021/01/04 04:10:18;;;;;;;1.03;1.03;;;19.60;48.00;;;;;;5059778;28;20493;-69
2021/01/04 04:12:44;;;;;;;1.53;0.83;;;19.70;47.20;;;;;;5060892;28;20508;-69
2021/01/04 04:15:12;;;;;;;1.63;0.80;;;19.70;46.90;;;;;;5056565;28;20489;-69
2021/01/04 04:17:38;;;;;;;1.43;0.70;;;19.70;46.80;;;;;;5054828;28;20477;-69
2021/01/04 04:20:05;;;;;;;1.17;0.83;;;19.80;46.70;;;;;;5056650;28;20488;-70
2021/01/04 04:22:31;;;;;;;0.83;0.83;;;19.80;46.40;;;;;;5057954;28;20556;-68
2021/01/04 04:24:58;;;;;;;0.80;0.80;;;19.80;46.40;;;;;;5055372;28;20478;-69
2021/01/04 04:27:25;;;;;;;1.27;0.93;;;19.80;46.40;;;;;;5061080;28;20478;-69
2021/01/04 04:29:51;;;;;;;0.93;0.93;;;19.90;46.30;;;;;;5050087;28;20921;-69
2021/01/04 04:32:17;;;;;;;0.80;0.80;;;19.90;46.40;;;;;;5065974;28;20485;-68
2021/01/04 04:34:44;;;;;;;0.83;0.83;;;19.90;46.20;;;;;;5058266;28;20580;-68
2021/01/04 04:37:10;;;;;;;0.53;0.53;;;20.00;46.30;;;;;;5031056;28;20492;-68
2021/01/04 04:39:36;;;;;;;0.90;0.70;;;20.00;46.30;;;;;;5053402;28;21128;-69
2021/01/04 04:42:05;;;;;;;0.70;0.70;;;20.00;46.20;;;;;;5054708;28;20554;-68
2021/01/04 04:44:34;;;;;;;0.53;0.53;;;20.10;46.20;;;;;;5055055;28;20508;-69
2021/01/04 04:47:07;;;;;;;0.60;0.60;;;20.10;46.30;;;;;;5055939;28;20490;-69
2021/01/04 04:50:01;;;;;;;1.63;0.60;;;20.00;46.20;;;;;;5053640;28;20583;-69
2021/01/04 04:52:47;;;;;;;2.90;1.00;;;20.00;46.30;;;;;;5032452;28;20470;-69
2021/01/04 04:55:15;;;;;;;0.50;0.50;;;20.00;46.20;;;;;;5053956;28;20488;-68
2021/01/04 04:57:51;;;;;;;0.80;0.80;;;20.00;46.30;;;;;;5040960;28;20477;-69
2021/01/04 05:00:45;;;;;;;0.77;0.60;;;20.00;47.20;;;;;;5051622;28;20489;-69
2021/01/04 05:03:27;;;;;;;0.50;0.50;;;20.00;46.60;;;;;;5045841;28;20461;-69
2021/01/04 05:06:07;;;;;;;0.57;0.50;;;20.10;46.40;;;;;;5045658;28;20531;-71
2021/01/04 05:08:57;;;;;;;0.70;0.63;;;20.00;46.40;;;;;;5055807;28;21066;-69
2021/01/04 05:11:24;;;;;;;0.67;0.67;;;20.10;46.40;;;;;;5051567;28;20472;-69
2021/01/04 05:13:52;;;;;;;0.60;0.60;;;20.00;46.10;;;;;;5059270;28;20547;-69
2021/01/04 05:16:20;;;;;;;0.80;0.80;;;20.00;46.00;;;;;;5055863;28;20493;-68
2021/01/04 05:19:08;;;;;;;0.70;0.70;;;20.00;46.00;;;;;;5055549;28;20487;-70
2021/01/04 05:22:04;;;;;;;0.47;0.47;;;20.10;46.00;;;;;;5055549;28;20539;-69
2021/01/04 05:24:49;;;;;;;0.67;0.67;;;20.10;46.00;;;;;;5053817;28;20493;-68
2021/01/04 05:27:38;;;;;;;0.87;0.60;;;20.10;45.90;;;;;;5049688;28;20981;-69
2021/01/04 05:30:31;;;;;;;0.57;0.57;;;20.20;45.80;;;;;;5052059;28;20571;-68
2021/01/04 05:33:16;;;;;;;0.53;0.50;;;20.20;45.50;;;;;;5058248;28;20476;-68
2021/01/04 05:35:43;;;;;;;0.70;0.70;;;20.20;45.60;;;;;;4996473;28;20863;-69
2021/01/04 05:38:11;;;;;;;0.63;0.60;;;20.20;45.60;;;;;;5059202;28;20481;-68
2021/01/04 05:40:56;;;;;;;0.50;0.50;;;20.20;45.50;;;;;;5056608;28;20551;-69
2021/01/04 05:43:28;;;;;;;0.47;0.47;;;20.20;45.50;;;;;;5055965;28;20497;-69
2021/01/04 05:45:58;;;;;;;0.70;0.70;;;20.20;45.50;;;;;;5056492;28;20485;-69
2021/01/04 05:48:36;;;;;;;0.97;0.67;;;20.20;45.50;;;;;;5055940;28;21026;-68
2021/01/04 05:51:05;;;;;;;2.33;0.80;;;20.20;45.40;;;;;;5057533;28;21121;-69
2021/01/04 05:53:31;;;;;;;0.60;0.60;;;20.10;45.30;;;;;;5058150;28;20482;-68
2021/01/04 05:55:57;;;;;;;0.50;0.50;;;20.10;45.40;;;;;;5049763;28;21470;-69
2021/01/04 05:58:26;;;;;;;0.50;0.50;;;20.10;45.50;;;;;;5071185;28;20494;-69
2021/01/04 06:00:52;;;;;;;0.50;0.50;;;20.10;45.50;;;;;;5055633;28;20493;-70
2021/01/04 06:03:21;;;;;;;0.50;0.50;;;20.10;45.40;;;;;;5055539;28;20569;-70
2021/01/04 06:05:48;;;;;;;1.80;0.60;;;20.10;45.40;;;;;;5055890;28;20519;-69
2021/01/04 06:08:22;;;;;;;0.50;0.50;;;20.10;45.50;;;;;;5061859;28;20473;-69
2021/01/04 06:10:48;;;;;;;0.73;0.73;;;20.10;45.50;;;;;;5059310;28;21016;-68
2021/01/04 06:13:15;;;;;;;0.80;0.80;;;20.10;45.40;;;;;;5057686;28;20535;-69
2021/01/04 06:15:41;;;;;;;0.60;0.57;;;20.10;45.10;;;;;;5027031;28;20624;-69
2021/01/04 06:18:09;;;;;;;0.73;0.60;;;20.10;45.00;;;;;;5038275;28;20478;-68
2021/01/04 06:21:35;;;;;;;0.50;0.50;;;20.10;44.90;;;;;;5052783;28;20473;-67
2021/01/04 06:24:03;;;;;;;0.87;0.87;;;20.10;44.60;;;;;;4971375;28;20551;-69
2021/01/04 06:26:29;;;;;;;0.53;0.53;;;20.00;45.00;;;;;;5005815;28;21227;-69
2021/01/04 06:28:56;;;;;;;0.63;0.60;;;20.00;44.20;;;;;;5024210;28;20479;-69
2021/01/04 06:31:31;;;;;;;0.50;0.50;;;20.00;44.20;;;;;;5041190;28;21009;-68
2021/01/04 06:33:58;;;;;;;0.40;0.40;;;20.00;44.30;;;;;;5035203;28;20493;-69
2021/01/04 06:36:24;;;;;;;0.47;0.47;;;19.90;44.60;;;;;;5037536;28;20580;-69
2021/01/04 06:38:50;;;;;;;0.60;0.60;;;19.90;44.80;;;;;;5032397;28;20482;-68
2021/01/04 06:41:19;;;;;;;2.23;0.57;;;19.90;44.90;;;;;;5038448;28;20494;-68
2021/01/04 06:43:45;;;;;;;0.90;0.70;;;19.90;45.00;;;;;;5040629;28;20980;-68
2021/01/04 06:46:26;;;;;;;0.80;0.80;;;19.90;44.90;;;;;;5029684;28;20564;-68
2021/01/04 06:48:55;;;;;;;0.70;0.60;;;19.90;44.90;;;;;;5050085;28;20484;-68
2021/01/04 06:51:43;;;;;;;1.13;0.60;;;19.90;45.00;;;;;;5048893;28;20488;-69
2021/01/04 06:54:34;;;;;;;0.53;0.53;;;19.90;44.80;;;;;;5059834;28;20606;-68
2021/01/04 06:57:42;;;;;;;0.40;0.40;;;20.00;45.00;;;;;;5053894;28;20499;-69
2021/01/04 07:00:24;;;;;;;0.60;0.57;;;19.90;45.00;;;;;;5012323;28;20537;-68
2021/01/04 07:03:33;;;;;;;0.60;0.50;;;20.00;45.20;;;;;;5055054;28;20478;-69
2021/01/04 07:06:24;;;;;;;0.67;0.67;;;20.10;45.20;;;;;;5054506;28;21082;-69
2021/01/04 07:09:11;;;;;;;1.00;1.00;;;20.10;45.10;;;;;;5053674;28;20597;-69
2021/01/04 07:11:43;;;;;;;0.50;0.50;;;20.10;44.80;;;;;;5051010;28;21396;-68
2021/01/04 07:14:36;;;;;;;0.50;0.50;;;20.10;44.90;;;;;;5056890;28;20486;-69
2021/01/04 07:17:09;;;;;;;0.63;0.60;;;20.20;44.80;;;;;;5012721;28;20490;-68
2021/01/04 07:19:47;;;;;;;0.60;0.60;;;20.20;44.70;;;;;;5046657;28;20480;-69
2021/01/04 07:22:19;;;;;;;0.60;0.60;;;20.30;44.80;;;;;;5027621;28;20474;-70
2021/01/04 07:24:54;;;;;;;0.70;0.70;;;20.30;44.90;;;;;;5031697;28;20534;-69
2021/01/04 07:27:28;;;;;;;0.77;0.40;;;20.30;45.00;;;;;;5045941;28;20968;-69
2021/01/04 07:30:09;;;;;;;0.50;0.50;;;20.20;45.00;;;;;;5030963;28;20491;-68
2021/01/04 07:32:45;;;;;;;0.87;0.50;;;20.20;45.00;;;;;;5031688;28;21562;-68
2021/01/04 07:35:14;;;;;;;0.47;0.47;;;20.10;45.10;;;;;;5038528;28;20476;-69
2021/01/04 07:37:47;;;;;;;0.50;0.50;;;20.10;45.30;;;;;;5037181;28;20485;-69
2021/01/04 07:40:33;;;;;;;0.50;0.50;;;20.10;45.30;;;;;;5024677;28;21300;-69
2021/01/04 07:43:56;;;;;;;0.40;0.40;;;20.10;45.40;;;;;;5050524;28;20485;-70
2021/01/04 07:46:52;;;;;;;0.40;0.40;;;20.00;45.50;;;;;;4971835;28;20489;-69
2021/01/04 07:49:51;;;;;;;0.50;0.43;;;20.00;45.70;;;;;;4972571;28;20490;-69
2021/01/04 07:52:44;;;;;;;0.87;0.50;;;20.00;45.70;;;;;;5046618;28;21062;-69
2021/01/04 07:55:49;;;;;;;0.40;0.40;;;20.00;45.70;;;;;;5015063;28;20912;-68
2021/01/04 07:58:48;;;;;;;0.40;0.40;;;20.00;45.80;;;;;;5029987;28;20522;-69
2021/01/04 08:01:47;;;;;;;0.40;0.40;;;20.00;45.80;;;;;;5025204;28;20470;-69
2021/01/04 08:04:25;;;;;;;0.60;0.60;;;20.00;45.80;;;;;;5034540;28;20888;-69
2021/01/04 08:07:04;;;;;;;0.60;0.60;;;20.10;45.80;;;;;;5030368;28;20986;-68
2021/01/04 08:09:40;;;;;;;0.70;0.40;;;20.10;45.80;;;;;;5028864;28;20565;-69
2021/01/04 08:12:36;;;;;;;0.50;0.50;;;20.10;45.70;;;;;;5032304;28;20489;-69
2021/01/04 08:15:16;;;;;;;0.53;0.50;;;20.10;45.70;;;;;;5033481;28;20551;-69
2021/01/04 08:17:45;;;;;;;1.77;0.63;;;20.10;45.70;;;;;;5018396;28;20498;-69
2021/01/04 08:20:13;;;;;;;0.60;0.50;;;20.10;45.80;;;;;;5032162;28;20485;-69
2021/01/04 08:23:04;;;;;;;0.60;0.50;;;20.10;45.90;;;;;;5032425;28;20478;-68
2021/01/04 08:25:54;;;;;;;0.50;0.50;;;20.10;45.90;;;;;;5048426;28;20572;-68
2021/01/04 08:28:23;;;;;;;0.50;0.50;;;20.10;46.00;;;;;;5040651;28;20496;-68
2021/01/04 08:30:54;;;;;;;0.50;0.50;;;20.10;45.90;;;;;;5053998;28;20519;-69
2021/01/04 08:33:25;;;;;;;0.67;0.63;;;20.20;45.80;;;;;;5049155;28;20469;-70
2021/01/04 08:35:53;;;;;;;0.40;0.40;;;20.20;45.70;;;;;;5047131;28;20481;-70
2021/01/04 08:38:37;;;;;;;0.50;0.50;;;20.20;45.70;;;;;;5046630;28;20477;-69
2021/01/04 08:41:08;;;;;;;0.40;0.40;;;20.20;45.70;;;;;;5048265;28;20535;-68
2021/01/04 08:43:37;;;;;;;0.67;0.67;;;20.20;45.80;;;;;;5059755;28;20485;-68
2021/01/04 08:46:18;;;;;;;0.50;0.50;;;20.20;45.90;;;;;;5055178;28;20485;-68
2021/01/04 08:48:44;;;;;;;0.60;0.53;;;20.10;45.90;;;;;;5045017;28;20901;-69
2021/01/04 08:51:13;;;;;;;0.43;0.43;;;20.10;45.90;;;;;;5051923;28;20493;-69
2021/01/04 08:53:39;;;;;;;0.43;0.43;;;20.10;46.00;;;;;;5057848;28;20494;-68
2021/01/04 08:56:17;;;;;;;0.40;0.40;;;20.10;46.00;;;;;;5042989;28;20492;-68
2021/01/04 08:58:44;;;;;;;0.60;0.60;;;20.10;46.00;;;;;;5026157;28;21001;-68
2021/01/04 09:01:19;;;;;;;0.50;0.50;;;20.10;46.00;;;;;;5050452;28;20468;-70
2021/01/04 09:03:45;;;;;;;0.60;0.60;;;20.00;46.00;;;;;;5061094;28;21618;-69
2021/01/04 09:06:29;;;;;;;0.60;0.60;;;20.10;46.00;;;;;;5029069;28;20506;-69
2021/01/04 09:08:57;;;;;;;0.40;0.40;;;20.10;46.00;;;;;;5041185;28;20889;-69
2021/01/04 09:11:23;;;;;;;0.80;0.80;;;20.00;46.10;;;;;;5059036;28;20515;-68
2021/01/04 09:13:49;;;;;;;1.87;0.50;;;20.10;46.10;;;;;;5057452;28;20477;-69
2021/01/04 09:16:17;;;;;;;0.73;0.60;;;20.10;46.10;;;;;;5053841;28;20551;-68
2021/01/04 09:18:45;;;;;;;0.43;0.40;;;20.10;46.10;;;;;;5053252;28;20486;-69
2021/01/04 09:21:31;;;;;;;0.50;0.40;;;20.10;46.10;;;;;;5027569;28;20520;-69
2021/01/04 09:24:09;;;;;;;1.17;0.57;;;20.10;46.10;;;;;;5050205;28;20539;-68
2021/01/04 09:26:37;;;;;;;0.53;0.50;;;20.10;46.00;;;;;;5019651;28;20501;-70
2021/01/04 09:29:21;;;;;;;1.00;0.50;;;20.10;45.90;;;;;;5036856;28;20939;-68
2021/01/04 09:31:47;;;;;;;0.50;0.50;;;20.10;45.90;;;;;;5057466;28;20474;-67
2021/01/04 09:34:14;;;;;;;0.40;0.40;;;20.10;46.00;;;;;;5055003;28;20488;-68
2021/01/04 09:36:41;;;;;;;0.80;0.40;;;20.10;46.10;;;;;;5059851;28;20505;-68
2021/01/04 09:39:08;;;;;;;2.00;0.60;;;20.10;46.00;;;;;;5032720;28;20912;-68
2021/01/04 09:41:34;;;;;;;0.40;0.40;;;20.00;46.00;;;;;;5033354;28;20547;-68
2021/01/04 09:44:04;;;;;;;1.30;0.70;;;20.10;46.00;;;;;;5032358;28;21495;-67
2021/01/04 09:46:36;;;;;;;0.50;0.50;;;20.00;46.00;;;;;;5025421;28;20490;-68
2021/01/04 09:49:04;;;;;;;0.40;0.40;;;20.00;46.20;;;;;;5046281;28;20490;-68
2021/01/04 09:51:33;;;;;;;0.50;0.50;;;20.10;46.10;;;;;;5057080;28;20481;-67
2021/01/04 09:54:02;;;;;;;0.67;0.60;;;20.00;46.00;;;;;;5052855;28;20492;-68
2021/01/04 09:56:30;;;;;;;0.70;0.50;;;20.10;46.00;;;;;;5065951;28;20486;-68
2021/01/04 09:59:05;;;;;;;0.73;0.50;;;20.20;45.90;;;;;;5052269;28;20493;-68
2021/01/04 10:01:31;;;;;;;0.40;0.40;;;20.30;45.80;;;;;;5066587;28;20489;-68
2021/01/04 10:03:59;;;;;;;0.40;0.40;;;20.40;45.70;;;;;;5059074;28;21143;-67
2021/01/04 10:06:27;;;;;;;0.60;0.53;;;20.40;45.50;;;;;;5059465;28;20481;-68
2021/01/04 10:08:53;;;;;;;0.50;0.50;;;20.50;45.40;;;;;;5058527;28;20497;-68
2021/01/04 10:11:22;;;;;;;0.50;0.50;;;20.50;45.20;;;;;;5063337;28;20493;-68
2021/01/04 10:13:49;;;;;;;0.60;0.50;;;20.60;45.20;;;;;;5032801;28;20488;-68
2021/01/04 10:16:17;;;;;;;0.63;0.63;;;20.50;45.20;;;;;;5055303;28;20556;-68
2021/01/04 10:18:47;;;;;;;0.50;0.50;;;20.50;45.30;;;;;;5050681;28;20491;-68
2021/01/04 10:21:16;;;;;;;1.03;0.50;;;20.50;45.50;;;;;;5063128;28;20485;-68
2021/01/04 10:23:45;;;;;;;0.50;0.50;;;20.40;45.50;;;;;;5059218;28;20493;-68
2021/01/04 10:26:16;;;;;;;0.50;0.50;;;20.40;45.60;;;;;;5052298;28;20898;-68
2021/01/04 10:28:43;;;;;;;0.50;0.50;;;20.30;45.60;;;;;;5046922;28;21244;-68
2021/01/04 10:31:10;;;;;;;0.50;0.50;;;20.30;45.70;;;;;;5058186;28;20473;-68
2021/01/04 10:33:38;;;;;;;0.77;0.50;;;20.30;45.80;;;;;;5059546;28;20474;-68
2021/01/04 10:36:07;;;;;;;1.00;0.60;;;20.30;45.80;;;;;;5056441;28;20482;-68
2021/01/04 10:38:33;;;;;;;0.80;0.80;;;20.30;45.70;;;;;;5058253;28;20477;-68
2021/01/04 10:41:00;;;;;;;0.70;0.50;;;20.30;45.70;;;;;;5056541;28;20481;-68
2021/01/04 10:43:26;;;;;;;0.90;0.60;;;20.40;45.70;;;;;;5055922;28;20489;-68
2021/01/04 10:45:53;;;;;;;0.67;0.60;;;20.40;46.40;;;;;;5058567;28;20486;-68
2021/01/04 10:48:20;;;;;;;0.40;0.40;;;20.50;45.60;;;;;;5057448;28;20482;-68
2021/01/04 10:50:46;;;;;;;1.13;0.50;;;20.50;46.30;;;;;;5051363;28;20739;-67
2021/01/04 10:53:15;;;;;;;0.90;0.50;;;20.50;45.60;;;;;;5066687;28;20543;-68
2021/01/04 10:55:51;;;;;;;0.80;0.50;;;20.40;45.50;;;;;;5053860;28;20546;-68
2021/01/04 10:58:21;;;;;;;0.50;0.50;;;20.40;45.70;;;;;;5053438;28;20493;-68
2021/01/04 11:00:51;;;;;;;0.40;0.40;;;20.30;45.70;;;;;;5055885;28;21151;-68
2021/01/04 11:03:18;;;;;;;0.50;0.50;;;20.30;45.80;;;;;;5063769;28;20479;-68
2021/01/04 11:05:47;;;;;;;0.90;0.67;;;20.30;45.80;;;;;;5035712;28;23586;-68
2021/01/04 11:08:16;;;;;;;0.40;0.40;;;20.30;46.00;;;;;;5043550;28;20555;-68
2021/01/04 11:10:51;;;;;;;0.50;0.50;;;20.30;45.90;;;;;;5022641;28;20478;-68
2021/01/04 11:13:25;;;;;;;0.40;0.40;;;20.30;46.00;;;;;;5054632;28;20587;-69
2021/01/04 11:15:51;;;;;;;0.50;0.50;;;20.30;46.00;;;;;;5047240;28;21055;-68
2021/01/04 11:18:18;;;;;;;0.50;0.47;;;20.30;46.10;;;;;;5027622;28;20532;-69
2021/01/04 11:20:44;;;;;;;0.63;0.50;;;20.30;45.90;;;;;;5046188;28;20487;-68
2021/01/04 11:23:11;;;;;;;0.40;0.40;;;20.40;45.80;;;;;;5045762;28;21446;-68
2021/01/04 11:25:39;;;;;;;0.40;0.40;;;20.50;45.70;;;;;;5037556;28;20490;-68
2021/01/04 11:28:05;;;;;;;0.60;0.60;;;20.50;45.60;;;;;;5036414;28;20844;-68
2021/01/04 11:30:31;;;;;;;0.50;0.50;;;20.60;45.70;;;;;;5043134;28;20490;-68
2021/01/04 11:32:58;;;;;;;0.50;0.50;;;20.50;45.60;;;;;;5038135;28;20486;-68
2021/01/04 11:35:25;;;;;;;0.40;0.40;;;20.50;45.70;;;;;;5038537;28;20498;-68
2021/01/04 11:37:51;;;;;;;0.80;0.47;;;20.40;45.70;;;;;;5059002;28;20504;-68
2021/01/04 11:40:18;;;;;;;0.50;0.50;;;20.40;45.80;;;;;;5058490;28;21607;-68
2021/01/04 11:42:44;;;;;;;0.40;0.40;;;20.30;45.80;;;;;;5057020;28;21005;-69
2021/01/04 11:45:12;;;;;;;0.50;0.50;;;20.30;45.80;;;;;;5054489;28;20532;-68
2021/01/04 11:47:38;;;;;;;0.43;0.43;;;20.30;45.90;;;;;;5055656;28;21185;-68
2021/01/04 11:50:06;;;;;;;0.50;0.40;;;20.30;45.90;;;;;;5052170;28;20479;-68
2021/01/04 11:52:33;;;;;;;1.00;0.63;;;20.30;45.90;;;;;;5057017;28;20473;-68
2021/01/04 11:54:59;;;;;;;0.43;0.43;;;20.30;45.90;;;;;;5044594;28;20489;-67
2021/01/04 11:57:25;;;;;;;0.50;0.50;;;20.30;45.90;;;;;;5054186;28;20476;-68
2021/01/04 11:59:52;;;;;;;0.40;0.40;;;20.30;45.90;;;;;;5054541;28;20901;-69
2021/01/04 12:02:18;;;;;;;0.60;0.60;;;20.40;45.80;;;;;;5038293;28;20498;-68
2021/01/04 12:04:44;;;;;;;0.50;0.50;;;20.40;45.70;;;;;;5048933;28;20481;-69
2021/01/04 12:07:11;;;;;;;0.40;0.40;;;20.50;45.60;;;;;;5054301;28;21013;-69
2021/01/04 12:09:38;;;;;;;0.50;0.50;;;20.50;45.50;;;;;;5054243;28;20531;-68
2021/01/04 12:12:05;;;;;;;0.57;0.57;;;20.60;45.60;;;;;;5057608;28;21257;-68
2021/01/04 12:14:32;;;;;;;1.23;0.50;;;20.50;45.50;;;;;;5049486;28;20468;-69
2021/01/04 12:17:00;;;;;;;0.50;0.50;;;20.50;45.50;;;;;;5053245;28;21001;-68
2021/01/04 12:19:26;;;;;;;0.50;0.50;;;20.50;45.60;;;;;;5056220;28;20479;-68
2021/01/04 12:21:53;;;;;;;0.40;0.40;;;20.50;45.60;;;;;;5035226;28;20482;-69
2021/01/04 12:24:19;;;;;;;0.63;0.63;;;20.50;45.70;;;;;;5033536;28;21723;-68
2021/01/04 12:26:48;;;;;;;0.40;0.40;;;20.40;45.70;;;;;;5053163;28;20481;-68
2021/01/04 12:29:15;;;;;;;0.43;0.43;;;20.40;45.70;;;;;;5042894;28;20473;-68
2021/01/04 12:31:41;;;;;;;2.00;0.50;;;20.40;45.80;;;;;;5049238;28;20831;-68
2021/01/04 12:34:07;;;;;;;0.63;0.50;;;20.40;45.80;;;;;;5056993;28;20552;-69
2021/01/04 12:36:33;;;;;;;0.60;0.60;;;20.30;45.80;;;;;;5054212;28;20482;-68
2021/01/04 12:38:59;;;;;;;0.60;0.60;;;20.30;45.90;;;;;;5040445;28;21083;-69
2021/01/04 12:41:26;;;;;;;0.70;0.40;;;20.30;45.90;;;;;;5059569;28;20493;-68
2021/01/04 12:43:53;;;;;;;0.40;0.40;;;20.30;45.90;;;;;;5047732;28;20489;-69
2021/01/04 12:46:19;;;;;;;0.50;0.50;;;20.30;45.90;;;;;;5053142;28;20480;-69
2021/01/04 12:48:45;;;;;;;1.23;0.40;;;20.30;46.00;;;;;;5056112;28;20486;-68
2021/01/04 12:51:12;;;;;;;0.50;0.50;;;20.30;45.90;;;;;;5049411;28;20477;-68
2021/01/04 12:53:38;;;;;;;1.10;0.50;;;20.30;46.00;;;;;;5050312;28;20478;-69
2021/01/04 12:56:05;;;;;;;0.50;0.50;;;20.30;45.90;;;;;;5069024;28;20485;-68
2021/01/04 12:58:31;;;;;;;0.80;0.43;;;20.40;45.90;;;;;;5057283;28;20493;-68
2021/01/04 13:00:58;;;;;;;0.47;0.47;;;20.40;45.90;;;;;;5055272;28;20966;-68
2021/01/04 13:03:24;;;;;;;0.50;0.50;;;20.30;45.90;;;;;;5055480;28;20492;-68
2021/01/04 13:05:50;;;;;;;0.50;0.50;;;20.40;45.90;;;;;;5042602;28;20489;-69
2021/01/04 13:08:16;;;;;;;0.60;0.50;;;20.40;45.90;;;;;;5034390;28;21340;-68
2021/01/04 13:10:43;;;;;;;1.03;0.60;;;20.40;45.90;;;;;;5044972;28;20486;-68
2021/01/04 13:13:09;;;;;;;0.70;0.43;;;20.40;45.90;;;;;;5021902;28;20994;-68
2021/01/04 13:15:35;;;;;;;0.40;0.40;;;20.30;45.90;;;;;;5043461;28;20486;-68